Terminal Aerodrome Forecast
Issued by NWS Amarillo, TX

Home | Current Version | Previous Version | Text Only | Print | Product List | Glossary On
Versions: 1 2 3 4 5 6 7 8 9 10 11 12 13 14 15 16 17 18 19 20 21 22 23 24 25 26 27 28 29 30 31
661
FTUS44 KAMA 252320
TAFAMA
TAF
KAMA 252320Z 2600/2624 09008KT P6SM VCTS BKN040CB
      TEMPO 2600/2604 VRB25G35KT 3SM TSRA BKN020CB
     FM260400 09008KT P6SM BKN040
      TEMPO 2604/2608 VRB25G35KT 3SM TSRA BKN020CB
     FM260800 14008KT P6SM OVC010
     FM261600 17015KT P6SM SCT040 SCT250=

USA.gov is the U.S. government's official web portal to all federal, state and local government web resources and services.